Time,TemperatureF,DewpointF,PressureIn,WindDirection,WindDirectionDegrees,WindSpeedMPH,WindSpeedGustMPH,Humidity,HourlyPrecipIn,Conditions,Clouds,dailyrainin,SoftwareType,DateUTC
2012-04-06 00:39:00,36.0,27.0,29.97,WSW,253,2.0,4.0,71,0.00,,,0.00,weatherlink.com 1.10,2012-04-06 07:39:00,
2012-04-06 01:09:00,36.9,25.0,29.96,NW,325,0.0,3.0,62,0.00,,,0.00,weatherlink.com 1.10,2012-04-06 08:09:00,
2012-04-06 01:24:00,36.8,24.0,29.96,NE,34,0.0,3.0,59,0.00,,,0.00,weatherlink.com 1.10,2012-04-06 08:24:00,
2012-04-06 01:39:00,36.7,24.0,29.96,NNE,24,0.0,4.0,61,0.00,,,0.00,weatherlink.com 1.10,2012-04-06 08:39:00,
2012-04-06 01:54:00,36.0,25.0,29.97,NNE,16,1.0,5.0,64,0.00,,,0.00,weatherlink.com 1.10,2012-04-06 08:54:00,
2012-04-06 02:09:00,35.6,24.0,29.97,NNW,345,3.0,5.0,62,0.00,,,0.00,weatherlink.com 1.10,2012-04-06 09:09:00,
2012-04-06 02:24:00,35.8,23.0,29.97,NNW,345,3.0,4.0,61,0.00,,,0.00,weatherlink.com 1.10,2012-04-06 09:24:00,
2012-04-06 02:54:00,36.0,22.0,29.97,North,6,3.0,5.0,58,0.00,,,0.00,weatherlink.com 1.10,2012-04-06 09:54:00,
2012-04-06 03:09:00,35.8,21.0,29.97,NNE,23,3.0,5.0,56,0.00,,,0.00,weatherlink.com 1.10,2012-04-06 10:09:00,
2012-04-06 03:24:00,35.6,21.0,29.97,NNE,15,4.0,8.0,55,0.00,,,0.00,weatherlink.com 1.10,2012-04-06 10:24:00,
2012-04-06 03:39:00,34.9,20.0,29.98,NNE,31,4.0,7.0,56,0.00,,,0.00,weatherlink.com 1.10,2012-04-06 10:39:00,
2012-04-06 04:10:00,34.8,19.0,29.98,NW,310,0.0,5.0,52,0.00,,,0.00,weatherlink.com 1.10,2012-04-06 11:10:00,
2012-04-06 04:25:00,34.7,17.0,29.99,NE,39,2.0,4.0,49,0.00,,,0.00,weatherlink.com 1.10,2012-04-06 11:25:00,
2012-04-06 04:40:00,33.7,18.0,29.99,North,8,0.0,4.0,53,0.00,,,0.00,weatherlink.com 1.10,2012-04-06 11:40:00,
2012-04-06 04:55:00,33.6,13.0,30.00,North,11,0.0,2.0,43,0.00,,,0.00,weatherlink.com 1.10,2012-04-06 11:55:00,
2012-04-06 05:10:00,33.9,13.0,30.00,North,10,1.0,2.0,42,0.00,,,0.00,weatherlink.com 1.10,2012-04-06 12:10:00,
2012-04-06 05:25:00,30.5,14.0,30.00,NNE,27,2.0,2.0,51,0.00,,,0.00,weatherlink.com 1.10,2012-04-06 12:25:00,
2012-04-06 05:40:00,29.4,12.0,30.01,NNE,23,3.0,3.0,49,0.00,,,0.00,weatherlink.com 1.10,2012-04-06 12:40:00,
2012-04-06 05:55:00,30.2,10.0,30.02,North,11,3.0,5.0,42,0.00,,,0.00,weatherlink.com 1.10,2012-04-06 12:55:00,
2012-04-06 06:10:00,30.7,10.0,30.03,NNE,29,3.0,4.0,43,0.00,,,0.00,weatherlink.com 1.10,2012-04-06 13:10:00,
2012-04-06 06:55:00,32.6,12.0,30.04,NNE,28,2.0,3.0,42,0.00,,,0.00,weatherlink.com 1.10,2012-04-06 13:55:00,
2012-04-06 07:10:00,34.0,11.0,30.05,NNE,13,2.0,3.0,38,0.00,,,0.00,weatherlink.com 1.10,2012-04-06 14:10:00,
2012-04-06 07:25:00,35.7,11.0,30.07,North,9,2.0,3.0,36,0.00,,,0.00,weatherlink.com 1.10,2012-04-06 14:25:00,
2012-04-06 07:55:00,39.5,17.0,30.07,NNE,26,0.0,2.0,41,0.00,,,0.00,weatherlink.com 1.10,2012-04-06 14:55:00,
2012-04-06 08:10:00,41.1,19.0,30.08,NNE,26,0.0,1.0,41,0.00,,,0.00,weatherlink.com 1.10,2012-04-06 15:10:00,
2012-04-06 08:25:00,43.2,17.0,30.08,NNE,26,0.0,0.0,35,0.00,,,0.00,weatherlink.com 1.10,2012-04-06 15:25:00,
2012-04-06 08:40:00,43.6,13.0,30.08,NNE,26,0.0,0.0,29,0.00,,,0.00,weatherlink.com 1.10,2012-04-06 15:40:00,
2012-04-06 09:11:00,47.6,14.0,30.08,SSW,210,0.0,2.0,26,0.00,,,0.00,weatherlink.com 1.10,2012-04-06 16:11:00,
2012-04-06 09:42:00,50.0,9.0,30.08,WSW,238,0.0,1.0,19,0.00,,,0.00,weatherlink.com 1.10,2012-04-06 16:42:00,
2012-04-06 09:57:00,51.6,18.0,30.09,SW,215,4.0,6.0,27,0.00,,,0.00,weatherlink.com 1.10,2012-04-06 16:57:00,
2012-04-06 11:11:00,53.4,24.0,30.11,SSW,195,2.0,6.0,32,0.00,,,0.00,weatherlink.com 1.10,2012-04-06 18:11:00,
2012-04-06 11:26:00,54.8,23.0,30.12,SE,136,0.0,5.0,29,0.00,,,0.00,weatherlink.com 1.10,2012-04-06 18:26:00,
2012-04-06 13:43:00,61.3,19.0,30.11,NNW,334,0.0,6.0,19,0.00,,,0.00,weatherlink.com 1.10,2012-04-06 20:43:00,
2012-04-06 13:57:00,60.5,15.0,30.10,SSW,208,2.0,8.0,17,0.00,,,0.00,weatherlink.com 1.10,2012-04-06 20:57:00,
2012-04-06 14:12:00,59.7,17.0,30.10,East,101,1.0,9.0,19,0.00,,,0.00,weatherlink.com 1.10,2012-04-06 21:12:00,
2012-04-06 14:27:00,61.2,17.0,30.10,SSW,206,1.0,6.0,18,0.00,,,0.00,weatherlink.com 1.10,2012-04-06 21:27:00,
2012-04-06 14:42:00,61.0,17.0,30.10,SW,223,3.0,8.0,18,0.00,,,0.00,weatherlink.com 1.10,2012-04-06 21:42:00,
2012-04-06 14:57:00,60.6,19.0,30.10,SSW,212,1.0,7.0,20,0.00,,,0.00,weatherlink.com 1.10,2012-04-06 21:57:00,
2012-04-06 15:12:00,60.8,23.0,30.10,NW,326,1.0,6.0,23,0.00,,,0.00,weatherlink.com 1.10,2012-04-06 22:12:00,
2012-04-06 15:27:00,61.0,21.0,30.10,SSW,197,4.0,6.0,21,0.00,,,0.00,weatherlink.com 1.10,2012-04-06 22:27:00,
2012-04-06 15:42:00,61.7,23.0,30.09,WSW,239,2.0,4.0,23,0.00,,,0.00,weatherlink.com 1.10,2012-04-06 22:42:00,
2012-04-06 15:57:00,60.9,22.0,30.09,WSW,257,1.0,3.0,22,0.00,,,0.00,weatherlink.com 1.10,2012-04-06 22:57:00,
2012-04-06 16:12:00,61.0,18.0,30.08,SSW,210,4.0,5.0,19,0.00,,,0.00,weatherlink.com 1.10,2012-04-06 23:12:00,
2012-04-06 16:27:00,62.3,18.0,30.08,SSW,211,1.0,3.0,18,0.00,,,0.00,weatherlink.com 1.10,2012-04-06 23:27:00,
2012-04-06 16:42:00,62.4,17.0,30.09,SSW,204,1.0,5.0,17,0.00,,,0.00,weatherlink.com 1.10,2012-04-06 23:42:00,
2012-04-06 17:12:00,59.3,18.0,30.08,SSW,204,2.0,4.0,20,0.00,,,0.00,weatherlink.com 1.10,2012-04-07 00:12:00,
2012-04-06 17:27:00,58.5,18.0,30.09,SSW,211,3.0,4.0,21,0.00,,,0.00,weatherlink.com 1.10,2012-04-07 00:27:00,
2012-04-06 17:42:00,58.3,18.0,30.09,SSW,211,0.0,2.0,21,0.00,,,0.00,weatherlink.com 1.10,2012-04-07 00:42:00,
2012-04-06 17:57:00,57.7,15.0,30.09,SW,215,1.0,4.0,19,0.00,,,0.00,weatherlink.com 1.10,2012-04-07 00:57:00,
2012-04-06 18:12:00,56.8,17.0,30.09,SSW,210,0.0,2.0,21,0.00,,,0.00,weatherlink.com 1.10,2012-04-07 01:12:00,
2012-04-06 18:27:00,57.1,18.0,30.09,West,280,0.0,2.0,22,0.00,,,0.00,weatherlink.com 1.10,2012-04-07 01:27:00,
2012-04-06 18:42:00,56.0,21.0,30.09,SSW,208,0.0,1.0,26,0.00,,,0.00,weatherlink.com 1.10,2012-04-07 01:42:00,
2012-04-06 18:57:00,53.6,20.0,30.09,SSW,210,0.0,0.0,27,0.00,,,0.00,weatherlink.com 1.10,2012-04-07 01:57:00,
2012-04-06 19:12:00,50.4,22.0,30.09,SSW,210,0.0,1.0,33,0.00,,,0.00,weatherlink.com 1.10,2012-04-07 02:12:00,
2012-04-06 19:27:00,48.2,22.0,30.08,NNE,19,2.0,3.0,36,0.00,,,0.00,weatherlink.com 1.10,2012-04-07 02:27:00,
2012-04-06 19:42:00,46.8,22.0,30.09,NNE,18,2.0,3.0,37,0.00,,,0.00,weatherlink.com 1.10,2012-04-07 02:42:00,
2012-04-06 19:57:00,44.6,24.0,30.09,NNE,18,1.0,2.0,44,0.00,,,0.00,weatherlink.com 1.10,2012-04-07 02:57:00,
2012-04-06 20:12:00,44.6,23.0,30.09,NNE,16,1.0,2.0,42,0.00,,,0.00,weatherlink.com 1.10,2012-04-07 03:12:00,
2012-04-06 20:27:00,43.2,23.0,30.10,NNE,23,3.0,3.0,45,0.00,,,0.00,weatherlink.com 1.10,2012-04-07 03:27:00,
2012-04-06 20:42:00,42.5,23.0,30.11,NNE,20,2.0,2.0,46,0.00,,,0.00,weatherlink.com 1.10,2012-04-07 03:42:00,
2012-04-06 20:57:00,41.6,23.0,30.11,NNE,22,1.0,1.0,47,0.00,,,0.00,weatherlink.com 1.10,2012-04-07 03:57:00,
2012-04-06 21:12:00,42.2,22.0,30.11,NNE,25,2.0,3.0,44,0.00,,,0.00,weatherlink.com 1.10,2012-04-07 04:12:00,
2012-04-06 21:27:00,41.8,22.0,30.12,NNE,18,1.0,2.0,46,0.00,,,0.00,weatherlink.com 1.10,2012-04-07 04:27:00,
2012-04-06 21:42:00,41.9,21.0,30.12,NNE,20,1.0,2.0,43,0.00,,,0.00,weatherlink.com 1.10,2012-04-07 04:42:00,
2012-04-06 21:57:00,43.0,19.0,30.12,NNE,23,1.0,4.0,39,0.00,,,0.00,weatherlink.com 1.10,2012-04-07 04:57:00,
2012-04-06 22:12:00,46.3,17.0,30.12,NNE,15,2.0,4.0,31,0.00,,,0.00,weatherlink.com 1.10,2012-04-07 05:12:00,
2012-04-06 22:27:00,46.2,18.0,30.12,NNE,22,3.0,4.0,32,0.00,,,0.00,weatherlink.com 1.10,2012-04-07 05:27:00,
2012-04-06 22:42:00,43.4,19.0,30.12,NNE,18,2.0,3.0,38,0.00,,,0.00,weatherlink.com 1.10,2012-04-07 05:42:00,
2012-04-06 22:57:00,41.9,18.0,30.12,NNE,25,2.0,3.0,38,0.00,,,0.00,weatherlink.com 1.10,2012-04-07 05:57:00,
2012-04-06 23:12:00,42.1,17.0,30.12,NNE,22,3.0,3.0,36,0.00,,,0.00,weatherlink.com 1.10,2012-04-07 06:12:00,
2012-04-06 23:27:00,41.1,16.0,30.12,NNE,29,2.0,3.0,37,0.00,,,0.00,weatherlink.com 1.10,2012-04-07 06:27:00,
2012-04-06 23:42:00,42.4,16.0,30.12,NNE,19,3.0,4.0,34,0.00,,,0.00,weatherlink.com 1.10,2012-04-07 06:42:00,
2012-04-06 23:58:00,41.5,17.0,30.12,NNE,26,2.0,3.0,38,0.00,,,0.00,weatherlink.com 1.10,2012-04-07 06:58:00,